< Typhoon 197004 1970 Season Typhoon 197006 >
Typhoon 197005 (SALLY)
General InformationTrack Information on Google Maps || Disaster Info.ResourceGoogle EarthGE AnimationAtom FeedGeoJSON
Detalied Best Track (Time Zone = UTC)
Year Month Day Hour Lat. Long. Pressure (hPa) Wind (kt) Class Image Chart
1970 7 19 06 24.4 161.8 1006 0 2 -- Chart
1970 7 19 12 24.6 162.3 1006 0 2 -- Chart
1970 7 19 18 24.9 162.7 1006 0 2 -- Chart
1970 7 20 00 25.3 163.0 1004 0 2 -- Chart
1970 7 20 06 26.1 163.0 1004 0 2 -- Chart
1970 7 20 12 26.9 162.9 1002 0 2 -- Chart
1970 7 20 18 27.9 162.9 1000 0 2 -- Chart
1970 7 21 00 28.8 162.7 998 0 2 -- Chart
1970 7 21 06 30.2 162.6 992 0 9 -- Chart
1970 7 21 12 31.6 162.4 992 0 9 -- Chart
1970 7 21 18 32.7 161.6 992 0 9 -- Chart
1970 7 22 00 33.3 161.2 992 0 9 -- Chart
1970 7 22 06 34.5 161.0 992 0 9 -- Chart
1970 7 22 12 36.0 161.3 992 0 9 -- Chart
1970 7 22 18 37.5 162.4 996 0 9 -- Chart
1970 7 23 00 39.0 164.0 1000 0 2 -- Chart
1970 7 23 06 40.9 166.7 1000 0 6 -- Chart
1970 7 23 12 42.0 169.0 1000 0 6 -- Chart
1970 7 23 18 43.2 171.8 1000 0 6 -- Chart
1970 7 24 00 45.0 175.5 998 0 6 -- Chart
1970 7 24 06 47.0 180.0 998 0 6 -- Chart
Japan Meteorological Agency Best Track Data | Correction Date : 1992-01-27
< Typhoon 197004 1970 Season Typhoon 197006 >

Help